Time;durP1;ratioP1;P1;durP2;ratioP2;P2;SDS_P1;SDS_P2;PMS_P1;PMS_P2;Temp;Humidity;BMP_temperature;BMP_pressure;BME280_temperature;BME280_humidity;BME280_pressure;Samples;Min_cycle;Max_cycle;Signal;HPM_P1;HPM_P2
2022/11/10 00:01:53;;;;;;;9.70;3.00;;;;;;;9.65;91.53;101663.50;5059360;28;20040;-68
2022/11/10 00:04:18;;;;;;;11.63;3.10;;;;;;;9.65;91.71;101670.44;5054633;28;20079;-68
2022/11/10 00:06:47;;;;;;;9.93;3.03;;;;;;;9.65;91.98;101667.84;5054187;28;20032;-68
2022/11/10 00:09:12;;;;;;;10.07;3.00;;;;;;;9.65;92.09;101666.13;5060514;28;20113;-68
2022/11/10 00:11:38;;;;;;;16.52;3.10;;;;;;;9.64;91.89;101668.66;5060567;28;20028;-68
2022/11/10 00:17:00;;;;;;;10.25;2.92;;;;;;;9.64;92.13;101666.94;5060682;28;20234;-68
2022/11/10 00:19:28;;;;;;;10.82;3.20;;;;;;;9.61;92.01;101669.41;5061932;28;20043;-68
2022/11/10 00:21:54;;;;;;;11.18;2.95;;;;;;;9.59;92.24;101665.88;5061496;28;20200;-68
2022/11/10 00:24:19;;;;;;;9.60;3.08;;;;;;;9.60;92.66;101664.16;5058338;28;20339;-68
2022/11/10 00:26:45;;;;;;;11.13;3.38;;;;;;;9.56;92.52;101666.63;5063642;28;20039;-68
2022/11/10 00:29:10;;;;;;;14.82;3.17;;;;;;;9.55;92.26;101670.03;5064554;28;20289;-68
2022/11/10 00:31:37;;;;;;;10.70;3.00;;;;;;;9.53;92.79;101676.91;5064755;28;20024;-68
2022/11/10 00:34:02;;;;;;;11.35;3.42;;;;;;;9.52;92.67;101679.44;5063494;28;20033;-68
2022/11/10 00:36:28;;;;;;;9.57;3.00;;;;;;;9.52;92.73;101677.72;5061607;28;20071;-68
2022/11/10 00:38:53;;;;;;;11.93;3.22;;;;;;;9.51;92.94;101693.28;5064387;28;20029;-68
2022/11/10 00:41:18;;;;;;;11.18;2.80;;;;;;;9.51;92.88;101695.88;5063951;28;20199;-67
2022/11/10 00:43:44;;;;;;;12.57;3.70;;;;;;;9.48;92.88;101701.84;5079350;28;20116;-68
2022/11/10 00:46:09;;;;;;;11.00;2.97;;;;;;;9.48;93.06;101698.34;5063037;28;20227;-68
2022/11/10 00:48:34;;;;;;;13.23;3.33;;;;;;;9.47;92.86;101700.06;5064002;28;20098;-68
2022/11/10 00:51:00;;;;;;;12.25;3.28;;;;;;;9.47;92.98;101707.88;5063762;28;20024;-68
2022/11/10 00:53:25;;;;;;;11.43;2.92;;;;;;;9.47;92.86;101702.69;5059118;28;20056;-68
2022/11/10 00:55:50;;;;;;;10.52;2.97;;;;;;;9.47;92.68;101705.28;5057328;28;20024;-68
2022/11/10 00:58:16;;;;;;;12.30;3.53;;;;;;;9.45;92.96;101704.31;5058929;28;20021;-74
2022/11/10 01:00:41;;;;;;;12.70;3.55;;;;;;;9.46;93.01;101697.38;5062309;28;20302;-74
2022/11/10 01:03:07;;;;;;;13.90;3.63;;;;;;;9.44;93.21;101699.91;5064345;28;20045;-74
2022/11/10 01:05:36;;;;;;;12.88;3.05;;;;;;;9.41;92.95;101702.41;5063660;28;20021;-74
2022/11/10 01:08:02;;;;;;;10.45;3.42;;;;;;;9.40;93.24;101711.06;5064003;28;20283;-74
2022/11/10 01:10:28;;;;;;;8.93;3.17;;;;;;;9.40;93.40;101704.13;5064111;28;20031;-74
2022/11/10 01:12:53;;;;;;;10.55;3.50;;;;;;;9.40;93.35;101709.31;5063513;28;20078;-74
2022/11/10 01:15:19;;;;;;;12.32;3.10;;;;;;;9.39;93.08;101704.06;5063631;28;20017;-74
2022/11/10 01:17:44;;;;;;;10.48;3.55;;;;;;;9.38;93.39;101707.47;5063472;28;20033;-74
2022/11/10 01:20:10;;;;;;;11.75;2.97;;;;;;;9.38;93.53;101712.69;5063519;28;20179;-74
2022/11/10 01:22:35;;;;;;;10.43;3.35;;;;;;;9.38;93.65;101720.47;5063254;28;20098;-74
2022/11/10 01:25:00;;;;;;;11.27;3.05;;;;;;;9.38;93.16;101723.09;5061629;28;20078;-74
2022/11/10 01:27:25;;;;;;;11.00;3.03;;;;;;;9.36;93.32;101737.75;5059864;28;20025;-74
2022/11/10 01:29:51;;;;;;;12.45;3.10;;;;;;;9.35;93.60;101744.63;5061000;28;20280;-73
2022/11/10 01:32:16;;;;;;;11.88;3.55;;;;;;;9.37;93.78;101749.91;5062460;28;20060;-74
2022/11/10 01:34:41;;;;;;;11.38;3.30;;;;;;;9.36;93.78;101751.63;5062648;28;20041;-74
2022/11/10 01:37:07;;;;;;;13.40;3.70;;;;;;;9.38;93.62;101749.09;5062261;28;20175;-74
2022/11/10 01:39:32;;;;;;;11.88;3.58;;;;;;;9.37;93.59;101752.50;5061838;28;20078;-74
2022/11/10 01:41:57;;;;;;;11.80;3.35;;;;;;;9.37;93.48;101755.09;5063109;28;20092;-74
2022/11/10 01:44:24;;;;;;;10.60;2.85;;;;;;;9.37;93.68;101758.63;5062028;28;20176;-74
2022/11/10 01:46:50;;;;;;;13.55;3.05;;;;;;;9.36;93.65;101745.56;5063213;28;20052;-74
2022/11/10 01:49:20;;;;;;;11.85;3.30;;;;;;;9.36;93.37;101755.94;5062969;28;20029;-74
2022/11/10 01:51:55;;;;;;;11.23;3.08;;;;;;;9.34;93.77;101748.09;5063098;28;20032;-74
2022/11/10 01:54:28;;;;;;;10.75;3.38;;;;;;;9.34;93.88;101749.78;5061849;28;20095;-74
2022/11/10 01:56:59;;;;;;;13.00;3.15;;;;;;;9.32;93.90;101746.22;5062418;28;20191;-74
2022/11/10 01:59:27;;;;;;;9.80;3.15;;;;;;;9.31;93.66;101752.25;5060608;28;20020;-74
2022/11/10 02:02:00;;;;;;;10.93;3.05;;;;;;;9.30;93.90;101746.16;5061794;28;20082;-74
2022/11/10 02:04:25;;;;;;;11.15;3.80;;;;;;;9.29;94.04;101744.38;5078757;28;20017;-74
2022/11/10 02:06:52;;;;;;;12.77;3.03;;;;;;;9.29;93.97;101753.91;5057154;28;20025;-74
2022/11/10 02:09:18;;;;;;;10.98;3.22;;;;;;;9.29;93.79;101748.72;5055899;28;20123;-74
2022/11/10 02:11:45;;;;;;;10.88;3.10;;;;;;;9.28;93.87;101746.91;5064066;28;20025;-74
2022/11/10 02:14:10;;;;;;;14.43;3.10;;;;;;;9.29;93.93;101748.72;5062722;28;20024;-74
2022/11/10 02:16:36;;;;;;;11.80;2.90;;;;;;;9.29;94.10;101753.91;5061464;28;20032;-74
2022/11/10 02:19:20;;;;;;;12.75;2.85;;;;;;;9.27;94.00;101750.34;5062448;28;20036;-74
2022/11/10 02:21:46;;;;;;;15.00;3.17;;;;;;;9.25;93.80;101755.47;5062222;28;20029;-74
2022/11/10 02:24:11;;;;;;;7.22;2.80;;;;;;;9.25;93.96;101768.47;5061651;28;20033;-74
2022/11/10 02:26:44;;;;;;;10.23;3.03;;;;;;;9.23;94.12;101764.94;5077317;28;20122;-68
2022/11/10 02:29:09;;;;;;;8.95;3.05;;;;;;;9.23;94.09;101765.81;5062460;28;20267;-68
2022/11/10 02:31:34;;;;;;;12.05;3.13;;;;;;;9.22;93.53;101771.84;5062080;28;20045;-68
2022/11/10 02:33:59;;;;;;;12.85;3.55;;;;;;;9.23;93.98;101784.00;5062967;28;20056;-68
2022/11/10 02:36:25;;;;;;;14.32;3.13;;;;;;;9.23;93.75;101783.13;5061874;28;20045;-68
2022/11/10 02:38:50;;;;;;;11.05;3.35;;;;;;;9.25;93.83;101797.06;5062483;28;20032;-68
2022/11/10 02:41:15;;;;;;;14.77;3.63;;;;;;;9.25;94.08;101804.00;5060912;28;20050;-68
2022/11/10 02:43:41;;;;;;;11.80;3.30;;;;;;;9.25;93.77;101806.59;5061004;28;20267;-68
2022/11/10 02:46:06;;;;;;;10.95;3.50;;;;;;;9.25;93.59;101809.19;5060037;28;20282;-68
2022/11/10 02:48:32;;;;;;;15.50;3.45;;;;;;;9.23;93.65;101802.22;5057602;28;20315;-68
2022/11/10 02:50:57;;;;;;;9.63;3.10;;;;;;;9.21;93.81;101803.88;5062504;28;20090;-68
2022/11/10 02:53:23;;;;;;;12.50;3.00;;;;;;;9.19;93.74;101805.50;5060476;28;20017;-68
2022/11/10 02:55:48;;;;;;;12.68;2.90;;;;;;;9.16;94.20;101800.16;5058936;28;20039;-68
2022/11/10 02:58:13;;;;;;;8.27;2.83;;;;;;;9.14;93.82;101796.63;5061516;28;20056;-74
2022/11/10 03:00:39;;;;;;;16.88;3.42;;;;;;;9.14;94.16;101800.91;5060797;28;20048;-74
2022/11/10 03:03:04;;;;;;;10.15;2.95;;;;;;;9.13;94.07;101805.22;5061846;28;20055;-74
2022/11/10 03:05:30;;;;;;;11.52;2.72;;;;;;;9.09;94.38;101798.09;5062399;28;20272;-74
2022/11/10 03:07:58;;;;;;;13.23;3.50;;;;;;;9.06;94.62;101808.38;5061755;28;20300;-74
2022/11/10 03:10:24;;;;;;;15.25;3.50;;;;;;;9.06;94.50;101816.16;5061650;28;20180;-74
2022/11/10 03:12:53;;;;;;;10.85;2.65;;;;;;;9.05;94.31;101811.78;5061042;28;20028;-74
2022/11/10 03:15:18;;;;;;;10.23;3.00;;;;;;;9.04;94.12;101818.69;5060477;28;20235;-74
2022/11/10 03:17:43;;;;;;;10.10;2.85;;;;;;;9.04;94.38;101815.22;5054446;28;20259;-74
2022/11/10 03:20:09;;;;;;;10.80;2.80;;;;;;;9.01;94.28;101821.16;5055042;28;20096;-74
2022/11/10 03:22:34;;;;;;;14.23;3.60;;;;;;;8.99;94.65;101824.50;5054784;28;20272;-74
2022/11/10 03:24:59;;;;;;;12.30;3.25;;;;;;;8.96;94.53;101820.06;5054711;28;20224;-74
2022/11/10 03:27:25;;;;;;;11.15;3.05;;;;;;;8.94;94.60;101826.91;5054203;28;20096;-74
2022/11/10 03:29:50;;;;;;;11.40;3.33;;;;;;;8.93;94.64;101832.03;5055534;28;20037;-74
2022/11/10 03:32:15;;;;;;;14.85;3.28;;;;;;;8.92;94.76;101845.84;5055153;28;20029;-74
2022/11/10 03:34:40;;;;;;;12.48;3.13;;;;;;;8.88;94.74;101843.09;5054731;28;20029;-74
2022/11/10 03:37:06;;;;;;;12.15;3.35;;;;;;;8.88;94.83;101850.91;5045963;28;20028;-74
2022/11/10 03:39:31;;;;;;;11.35;3.00;;;;;;;8.88;94.86;101850.91;5054189;28;20028;-74
2022/11/10 03:41:56;;;;;;;10.07;3.20;;;;;;;8.87;94.91;101854.31;5055055;28;20033;-75
2022/11/10 03:44:22;;;;;;;16.85;3.30;;;;;;;8.86;94.88;101854.25;5054403;28;20037;-74
2022/11/10 03:46:47;;;;;;;12.07;3.25;;;;;;;8.83;94.83;101865.38;5055516;28;20044;-74
2022/11/10 03:49:12;;;;;;;12.73;2.80;;;;;;;8.83;94.80;101861.91;5054814;28;20036;-74
2022/11/10 03:51:38;;;;;;;11.07;3.13;;;;;;;8.80;94.88;101873.03;5071523;28;20031;-74
2022/11/10 03:54:03;;;;;;;16.02;3.53;;;;;;;8.78;95.01;101874.69;5056258;28;20037;-74
2022/11/10 03:56:28;;;;;;;8.52;2.92;;;;;;;8.78;95.38;101869.47;5058147;28;20094;-68
2022/11/10 03:58:54;;;;;;;12.40;3.08;;;;;;;8.76;95.18;101876.31;5058264;28;20056;-68
2022/11/10 04:01:19;;;;;;;13.18;3.35;;;;;;;8.75;95.23;101881.41;5060224;28;20021;-68
2022/11/10 04:03:44;;;;;;;15.05;3.78;;;;;;;8.74;95.01;101877.06;5065040;28;20035;-68
2022/11/10 04:09:00;;;;;;;14.85;3.80;;;;;;;8.69;95.36;101885.53;5064548;28;20056;-68
2022/11/10 04:16:55;;;;;;;12.20;3.10;;;;;;;8.63;95.67;101903.41;5062490;28;20067;-68
2022/11/10 04:19:21;;;;;;;15.23;3.45;;;;;;;8.63;95.75;101905.09;5059296;28;20250;-68
2022/11/10 04:21:46;;;;;;;11.77;3.30;;;;;;;8.64;95.77;101904.31;5059245;28;20210;-68
2022/11/10 04:24:12;;;;;;;11.85;3.25;;;;;;;8.64;95.84;101909.50;5057908;28;20174;-68
2022/11/10 04:26:37;;;;;;;14.70;3.55;;;;;;;8.64;95.61;101909.50;5058741;28;20051;-74
2022/11/10 04:29:09;;;;;;;16.77;3.53;;;;;;;8.62;95.89;101919.81;5058663;28;20040;-74
2022/11/10 04:31:37;;;;;;;10.25;3.35;;;;;;;8.63;95.99;101923.28;5059010;28;20110;-74
2022/11/10 04:34:03;;;;;;;12.40;3.33;;;;;;;8.61;95.79;101919.75;5059770;28;20025;-74
2022/11/10 04:36:31;;;;;;;14.57;3.20;;;;;;;8.59;95.88;101934.34;5059681;28;20040;-74
2022/11/10 04:38:56;;;;;;;13.52;3.10;;;;;;;8.59;95.94;101934.34;5061932;28;20287;-74
2022/11/10 04:41:25;;;;;;;12.82;2.88;;;;;;;8.58;96.19;101942.97;5062544;28;20035;-74
2022/11/10 04:43:50;;;;;;;15.52;3.92;;;;;;;8.57;96.04;101941.19;5059863;28;20062;-75
2022/11/10 04:46:34;;;;;;;14.68;3.28;;;;;;;8.55;96.43;101950.63;5064441;28;20052;-74
2022/11/10 04:49:00;;;;;;;12.95;3.28;;;;;;;8.55;96.39;101955.81;5065032;28;20037;-74
2022/11/10 04:51:31;;;;;;;10.30;3.17;;;;;;;8.53;96.46;101954.03;5064266;28;20194;-74
2022/11/10 04:53:57;;;;;;;13.43;3.38;;;;;;;8.53;96.44;101961.81;5061349;28;20028;-74
2022/11/10 04:56:24;;;;;;;11.57;3.40;;;;;;;8.53;96.62;101969.63;5061853;28;20074;-74
2022/11/10 04:58:50;;;;;;;14.50;3.53;;;;;;;8.52;96.37;101962.63;5063279;28;20032;-74
2022/11/10 05:01:18;;;;;;;11.48;3.35;;;;;;;8.52;96.56;101965.22;5062241;28;20032;-74
2022/11/10 05:03:45;;;;;;;18.02;3.53;;;;;;;8.53;96.81;101969.63;5062022;28;20025;-74
2022/11/10 05:06:11;;;;;;;15.20;3.78;;;;;;;8.55;96.49;101976.59;5063372;28;20202;-69
2022/11/10 05:08:37;;;;;;;14.88;3.40;;;;;;;8.52;96.63;101975.63;5060122;28;20047;-68
2022/11/10 05:11:03;;;;;;;12.73;3.67;;;;;;;8.51;96.70;101981.63;5058463;28;20029;-68
2022/11/10 05:13:29;;;;;;;12.07;3.35;;;;;;;8.52;96.88;101983.41;5063030;28;20064;-68
2022/11/10 05:15:54;;;;;;;13.23;3.53;;;;;;;8.51;97.03;101979.00;5064439;28;20021;-69
2022/11/10 05:18:20;;;;;;;11.90;3.25;;;;;;;8.51;96.96;101991.13;5065092;28;20027;-69
2022/11/10 05:20:45;;;;;;;13.68;3.50;;;;;;;8.50;97.30;101994.53;5063668;28;20037;-68
2022/11/10 05:25:54;;;;;;;11.68;3.45;;;;;;;8.49;97.19;101990.16;5062277;28;20028;-69
2022/11/10 05:28:20;;;;;;;12.48;3.40;;;;;;;8.47;97.03;101992.69;5062322;28;20640;-68
2022/11/10 05:30:45;;;;;;;12.57;3.58;;;;;;;8.47;97.24;101991.78;5058931;28;20037;-68
2022/11/10 05:33:11;;;;;;;13.57;3.55;;;;;;;8.45;97.35;101988.22;5063480;28;20139;-68
2022/11/10 05:35:36;;;;;;;11.63;3.42;;;;;;;8.43;97.23;101984.59;5063233;28;20049;-69
2022/11/10 05:38:03;;;;;;;18.65;3.65;;;;;;;8.41;97.27;101987.13;5062719;28;20276;-74
2022/11/10 05:40:29;;;;;;;13.73;3.30;;;;;;;8.40;97.47;101989.66;5062744;28;20093;-74
2022/11/10 05:42:54;;;;;;;12.07;3.30;;;;;;;8.40;97.23;101976.66;5063143;28;20267;-74
2022/11/10 05:45:25;;;;;;;12.13;3.17;;;;;;;8.38;97.45;101986.97;5062538;28;20029;-75
2022/11/10 05:47:51;;;;;;;14.98;4.30;;;;;;;8.37;97.48;101990.38;5061252;28;20021;-74
2022/11/10 05:50:17;;;;;;;11.90;3.38;;;;;;;8.35;97.54;102008.47;5062435;28;20090;-74
2022/11/10 05:52:48;;;;;;;15.95;3.47;;;;;;;8.35;97.68;102012.78;5054239;28;20028;-74
2022/11/10 05:55:15;;;;;;;13.10;3.67;;;;;;;8.35;97.54;102012.78;5062884;28;20044;-74
2022/11/10 05:57:42;;;;;;;18.92;3.80;;;;;;;8.35;97.60;102013.69;5062403;28;20047;-74
2022/11/10 06:00:09;;;;;;;17.38;3.55;;;;;;;8.34;97.74;102011.91;5062373;28;20088;-75
2022/11/10 06:02:34;;;;;;;17.13;3.58;;;;;;;8.33;97.62;102017.03;5061765;28;20048;-74
2022/11/10 06:04:59;;;;;;;16.58;3.58;;;;;;;8.32;97.58;102020.44;5063539;28;20051;-74
2022/11/10 06:07:24;;;;;;;12.80;3.20;;;;;;;8.29;97.66;102017.69;5062387;28;20028;-74
2022/11/10 06:09:50;;;;;;;17.30;3.80;;;;;;;8.28;97.86;102029.75;5062785;28;20028;-74
2022/11/10 06:12:15;;;;;;;11.65;3.28;;;;;;;8.30;97.82;102037.66;5062128;28;20029;-75
2022/11/10 06:14:40;;;;;;;16.48;3.65;;;;;;;8.30;97.75;102048.03;5062615;28;20029;-74
2022/11/10 06:17:06;;;;;;;13.80;3.83;;;;;;;8.31;97.80;102039.41;5062156;28;20124;-74
2022/11/10 06:19:31;;;;;;;13.73;3.70;;;;;;;8.31;97.56;102047.19;5062670;28;20224;-74
2022/11/10 06:21:56;;;;;;;16.02;3.58;;;;;;;8.28;97.73;102042.72;5062071;28;20033;-74
2022/11/10 06:24:22;;;;;;;18.65;4.13;;;;;;;8.28;97.69;102047.94;5062558;28;20052;-74
2022/11/10 06:26:47;;;;;;;13.60;3.58;;;;;;;8.27;97.50;102045.25;5062483;28;20052;-74
2022/11/10 06:29:12;;;;;;;11.45;3.17;;;;;;;8.25;97.75;102039.09;5062016;28;20099;-74
2022/11/10 06:31:37;;;;;;;13.02;3.85;;;;;;;8.24;97.94;102039.91;5062151;28;20024;-74
2022/11/10 06:34:03;;;;;;;13.55;3.38;;;;;;;8.22;97.92;102057.13;5061841;28;20173;-74
2022/11/10 06:36:28;;;;;;;12.05;2.80;;;;;;;8.21;97.95;102060.50;5061012;28;20051;-69
2022/11/10 06:38:53;;;;;;;13.43;3.83;;;;;;;8.19;98.06;102061.31;5062315;28;20031;-69
2022/11/10 06:41:19;;;;;;;16.85;3.85;;;;;;;8.19;97.96;102070.81;5061944;28;20179;-69
2022/11/10 06:43:44;;;;;;;13.40;3.53;;;;;;;8.17;98.10;102070.75;5061283;28;20056;-69
2022/11/10 06:46:09;;;;;;;16.50;3.28;;;;;;;8.16;98.40;102074.16;5061646;28;20096;-69
2022/11/10 06:48:34;;;;;;;10.07;3.72;;;;;;;8.14;98.53;102080.97;5060988;28;20031;-69
2022/11/10 06:51:00;;;;;;;13.13;3.13;;;;;;;8.14;98.57;102091.34;5062730;28;20024;-69
2022/11/10 06:53:26;;;;;;;10.63;3.40;;;;;;;8.14;98.59;102096.53;5061750;28;20276;-69
2022/11/10 06:55:51;;;;;;;15.77;3.53;;;;;;;8.14;98.45;102093.03;5061298;28;20055;-69
2022/11/10 06:58:17;;;;;;;10.60;2.97;;;;;;;8.13;98.70;102099.94;5061862;28;20035;-69
2022/11/10 07:00:42;;;;;;;15.18;3.58;;;;;;;8.14;98.82;102099.16;5060859;28;20033;-69
2022/11/10 07:03:12;;;;;;;11.05;3.63;;;;;;;8.15;98.84;102108.72;5077212;28;20028;-69
2022/11/10 07:05:37;;;;;;;;;;;;;;;8.19;97.84;102100.25;5062508;28;20033;-69
2022/11/10 07:08:06;;;;;;;10.87;3.13;;;;;;;8.17;98.74;102106.22;5059967;28;20074;-74
2022/11/10 07:10:32;;;;;;;;;;;;;;;8.22;97.64;102114.25;5060733;28;20298;-74
2022/11/10 07:12:59;;;;;;;14.80;2.97;;;;;;;8.17;98.27;102109.69;5060856;28;19909;-74
2022/11/10 07:15:24;;;;;;;12.63;3.28;;;;;;;8.17;98.38;102122.66;5060267;28;20028;-74
2022/11/10 07:17:50;;;;;;;11.20;3.45;;;;;;;8.17;98.80;102127.88;5057930;28;20044;-74
2022/11/10 07:20:15;;;;;;;12.32;3.40;;;;;;;8.17;98.69;102135.66;5060495;28;20152;-74
2022/11/10 07:22:40;;;;;;;14.60;3.75;;;;;;;8.17;98.83;102132.16;5061808;28;20025;-75
2022/11/10 07:25:06;;;;;;;14.38;3.85;;;;;;;8.17;99.05;102143.44;5062201;28;20021;-74
2022/11/10 07:27:31;;;;;;;16.75;3.65;;;;;;;8.18;99.09;102145.22;5061570;28;20033;-75
2022/11/10 07:29:56;;;;;;;12.80;3.42;;;;;;;8.19;99.23;102144.41;5063381;28;20052;-74
2022/11/10 07:32:22;;;;;;;15.68;3.47;;;;;;;8.23;99.13;102160.19;5065639;28;20025;-74
2022/11/10 07:34:47;;;;;;;12.90;3.83;;;;;;;8.25;99.16;102168.94;5063912;28;20301;-74
2022/11/10 07:37:12;;;;;;;11.50;3.42;;;;;;;8.27;99.25;102172.50;5065068;28;20076;-69
2022/11/10 07:39:37;;;;;;;11.75;3.45;;;;;;;8.29;99.26;102168.28;5065421;28;20021;-69
2022/11/10 07:42:03;;;;;;;13.93;3.40;;;;;;;8.30;99.29;102165.78;5065656;28;20037;-69
2022/11/10 07:44:28;;;;;;;15.85;3.85;;;;;;;8.33;99.20;102167.66;5065709;28;20273;-69
2022/11/10 07:46:53;;;;;;;15.57;4.00;;;;;;;8.35;99.42;102168.63;5065235;28;20033;-69
2022/11/10 07:49:19;;;;;;;16.42;4.00;;;;;;;8.36;99.44;102165.22;5065008;28;20055;-69
2022/11/10 07:51:44;;;;;;;13.18;3.67;;;;;;;8.40;99.47;102166.25;5065273;28;20264;-69
2022/11/10 07:54:09;;;;;;;11.82;3.45;;;;;;;8.41;99.51;102168.06;5064545;28;20033;-69
2022/11/10 07:56:35;;;;;;;14.35;4.20;;;;;;;8.43;99.29;102172.53;5065287;28;20299;-69
2022/11/10 07:59:00;;;;;;;17.92;4.15;;;;;;;8.46;99.30;102174.44;5065438;28;20020;-69
2022/11/10 08:01:25;;;;;;;12.90;3.35;;;;;;;8.48;99.29;102175.41;5062716;28;20024;-69
2022/11/10 08:03:50;;;;;;;15.05;3.33;;;;;;;8.50;99.18;102185.06;5073804;28;20021;-69
2022/11/10 08:06:16;;;;;;;15.23;3.50;;;;;;;8.53;98.99;102190.44;5054762;28;20047;-74
2022/11/10 08:08:42;;;;;;;12.48;3.72;;;;;;;8.58;99.45;102192.38;5051912;28;20192;-74
2022/11/10 08:11:07;;;;;;;18.65;4.28;;;;;;;8.61;99.06;102198.63;5055052;28;20040;-74
2022/11/10 08:13:32;;;;;;;21.25;4.03;;;;;;;8.65;99.26;102208.38;5058772;28;20044;-75
2022/11/10 08:15:58;;;;;;;15.10;3.67;;;;;;;8.68;98.73;102208.53;5051223;28;20350;-75
2022/11/10 08:18:24;;;;;;;13.52;3.95;;;;;;;8.73;99.07;102215.69;5058087;28;20283;-75
2022/11/10 08:20:50;;;;;;;14.85;3.88;;;;;;;8.76;98.85;102224.56;5061081;28;20195;-75
2022/11/10 08:23:16;;;;;;;14.63;3.63;;;;;;;8.79;98.70;102214.31;5058719;28;20025;-74
2022/11/10 08:25:42;;;;;;;15.90;4.30;;;;;;;8.83;98.58;102216.22;5057411;28;20311;-74
2022/11/10 08:28:13;;;;;;;15.85;4.38;;;;;;;8.88;98.73;102217.38;5063948;28;20329;-74
2022/11/10 08:30:40;;;;;;;18.20;4.70;;;;;;;8.94;98.31;102218.53;5063311;28;20032;-75
2022/11/10 08:33:08;;;;;;;16.08;4.63;;;;;;;8.98;98.09;102226.56;5057719;28;20049;-76
2022/11/10 08:35:36;;;;;;;19.75;3.92;;;;;;;9.02;98.16;102228.50;5057435;28;20375;-75
2022/11/10 08:38:07;;;;;;;15.70;3.95;;;;;;;9.07;98.11;102230.44;5058463;28;20096;-75
2022/11/10 08:40:32;;;;;;;15.73;3.70;;;;;;;9.10;97.66;102226.31;5062839;28;20319;-74
2022/11/10 08:42:59;;;;;;;16.45;3.80;;;;;;;9.14;97.63;102224.75;5062457;28;20031;-74
2022/11/10 08:45:25;;;;;;;16.42;4.00;;;;;;;9.18;97.95;102226.69;5062457;28;20037;-74
2022/11/10 08:48:01;;;;;;;15.98;4.03;;;;;;;9.23;97.39;102230.44;5057735;28;20029;-75
2022/11/10 08:50:28;;;;;;;15.45;4.07;;;;;;;9.29;97.11;102232.47;5059040;28;20092;-74
2022/11/10 08:52:54;;;;;;;18.40;3.97;;;;;;;9.33;97.08;102237.91;5059500;28;20029;-74
2022/11/10 08:55:20;;;;;;;19.30;4.57;;;;;;;9.36;96.83;102243.25;5062498;28;20047;-74
2022/11/10 08:57:46;;;;;;;23.20;4.88;;;;;;;9.41;96.88;102243.47;5057659;28;20045;-74
2022/11/10 09:00:15;;;;;;;13.15;4.53;;;;;;;9.46;97.07;102247.22;5061082;28;20102;-74
2022/11/10 09:02:40;;;;;;;14.38;3.75;;;;;;;9.51;96.68;102253.53;5056665;28;20036;-75
2022/11/10 09:05:06;;;;;;;16.38;3.97;;;;;;;9.56;96.77;102253.78;5060560;28;20195;-74
2022/11/10 09:07:41;;;;;;;12.98;3.67;;;;;;;9.58;96.52;102252.16;5058679;28;20051;-75
2022/11/10 09:10:06;;;;;;;14.65;4.90;;;;;;;9.64;96.64;102256.75;5059757;28;20048;-74
2022/11/10 09:12:32;;;;;;;16.13;4.07;;;;;;;9.70;96.58;102262.28;5061024;28;20021;-74
2022/11/10 09:14:57;;;;;;;16.33;4.20;;;;;;;9.72;96.16;102265.88;5063171;28;20025;-75
2022/11/10 09:17:22;;;;;;;13.55;4.00;;;;;;;9.75;96.25;102266.91;5062679;28;20222;-74
2022/11/10 09:19:47;;;;;;;13.93;4.50;;;;;;;9.79;96.02;102273.16;5055644;28;20047;-75
2022/11/10 09:22:13;;;;;;;20.98;4.70;;;;;;;9.86;95.86;102277.84;5056799;28;20114;-75
2022/11/10 09:24:38;;;;;;;15.80;4.15;;;;;;;9.89;95.53;102274.47;5057183;28;20047;-75
2022/11/10 09:27:03;;;;;;;14.40;4.47;;;;;;;9.94;95.60;102274.75;5056773;28;20021;-75
2022/11/10 09:29:28;;;;;;;19.35;4.65;;;;;;;9.98;95.20;102271.44;5058622;28;20084;-75
2022/11/10 09:31:54;;;;;;;15.88;4.00;;;;;;;10.04;95.52;102276.97;5054858;28;20207;-74
2022/11/10 09:34:19;;;;;;;14.15;4.65;;;;;;;10.08;95.07;102274.59;5052739;28;20048;-75
2022/11/10 09:36:44;;;;;;;18.23;4.30;;;;;;;10.15;94.73;102273.16;5059797;28;20021;-74
2022/11/10 09:39:10;;;;;;;18.30;4.10;;;;;;;10.19;94.73;102269.88;5059093;28;20079;-74
2022/11/10 09:41:40;;;;;;;16.05;4.00;;;;;;;10.24;94.16;102273.63;5070526;28;20035;-75
2022/11/10 09:44:21;;;;;;;16.48;4.97;;;;;;;10.28;94.12;102279.84;5060886;28;20051;-74
2022/11/10 09:47:12;;;;;;;15.32;3.90;;;;;;;10.32;94.16;102278.31;5061382;28;20056;-69
2022/11/10 09:49:55;;;;;;;20.27;4.47;;;;;;;10.38;93.59;102276.00;5060565;28;20104;-69
2022/11/10 09:52:23;;;;;;;15.57;4.35;;;;;;;10.43;94.27;102288.44;5057397;28;20321;-69
2022/11/10 09:54:55;;;;;;;15.50;3.80;;;;;;;10.49;94.20;102290.44;5059757;28;20098;-69
2022/11/10 09:57:24;;;;;;;17.63;3.63;;;;;;;10.57;93.52;102280.38;5061950;28;20063;-69
2022/11/10 09:59:50;;;;;;;19.70;4.25;;;;;;;10.65;93.29;102275.53;5056237;28;20044;-69
2022/11/10 10:02:30;;;;;;;16.60;4.07;;;;;;;10.71;92.94;102273.22;5070318;28;20230;-69
2022/11/10 10:05:29;;;;;;;17.88;4.32;;;;;;;10.78;92.73;102283.97;5055401;28;20021;-69
2022/11/10 10:07:54;;;;;;;;;;;;;;;10.86;92.74;102281.75;5058561;28;20037;-69
2022/11/10 10:10:37;;;;;;;13.93;4.18;;;;;;;10.92;91.48;102281.09;5057257;28;20049;-66
2022/11/10 10:13:30;;;;;;;15.88;3.67;;;;;;;10.99;91.49;102277.06;5060263;28;20024;-65
2022/11/10 10:16:16;;;;;;;18.92;3.90;;;;;;;11.06;91.21;102280.00;5064549;28;20041;-66
2022/11/10 10:19:08;;;;;;;16.27;4.15;;;;;;;11.15;91.18;102284.75;5061801;28;20047;-66
2022/11/10 10:21:48;;;;;;;16.95;4.07;;;;;;;11.25;90.67;102296.47;5057115;28;20135;-66
2022/11/10 10:24:18;;;;;;;16.23;4.13;;;;;;;11.35;90.44;102293.44;5057578;28;20056;-65
2022/11/10 10:26:52;;;;;;;20.83;4.28;;;;;;;11.46;89.88;102301.75;5056874;28;20229;-66
2022/11/10 10:29:22;;;;;;;16.63;3.63;;;;;;;11.55;89.37;102307.38;5056917;28;20024;-66
2022/11/10 10:31:50;;;;;;;19.40;3.80;;;;;;;11.62;88.55;102312.03;5057089;28;20025;-65
2022/11/10 10:34:22;;;;;;;16.77;3.80;;;;;;;11.72;88.54;102304.59;5072869;28;20206;-66
2022/11/10 10:36:47;;;;;;;14.50;3.85;;;;;;;11.79;89.08;102314.47;5055572;28;20151;-65
2022/11/10 10:39:16;;;;;;;18.05;4.15;;;;;;;11.87;88.13;102323.50;5056237;28;20028;-66
2022/11/10 10:41:44;;;;;;;15.77;4.20;;;;;;;11.94;87.09;102328.19;5055613;28;20075;-66
2022/11/10 10:44:18;;;;;;;12.85;3.75;;;;;;;12.05;87.36;102333.88;5056692;28;20033;-66
2022/11/10 10:46:48;;;;;;;14.30;4.00;;;;;;;12.13;86.81;102339.41;5056638;28;20056;-65
2022/11/10 10:49:28;;;;;;;14.88;4.05;;;;;;;12.23;86.89;102353.75;5056314;28;20024;-65
2022/11/10 10:52:09;;;;;;;;;;;;;;;12.31;88.11;102354.94;5057229;28;20246;-66
2022/11/10 10:54:37;;;;;;;18.20;3.78;;;;;;;12.35;85.98;102346.41;5056997;28;20067;-66
2022/11/10 10:57:04;;;;;;;22.42;3.80;;;;;;;12.42;85.33;102351.06;5056678;28;20037;-66
2022/11/10 10:59:30;;;;;;;19.13;3.65;;;;;;;12.47;84.63;102357.38;5066903;28;20017;-66
2022/11/10 11:01:55;;;;;;;14.38;3.28;;;;;;;12.53;84.11;102351.50;5057159;28;20036;-66
2022/11/10 11:04:31;;;;;;;18.10;3.80;;;;;;;12.56;83.67;102342.88;5056193;28;20275;-66
2022/11/10 11:06:59;;;;;;;16.25;4.00;;;;;;;12.61;83.12;102346.56;5056491;28;20017;-65
2022/11/10 11:09:43;;;;;;;14.80;3.22;;;;;;;12.66;83.57;102345.91;5056448;28;20024;-66
2022/11/10 11:12:24;;;;;;;13.57;2.80;;;;;;;12.73;81.96;102340.91;5070754;28;20292;-65
2022/11/10 11:14:50;;;;;;;14.77;3.13;;;;;;;12.76;82.01;102327.94;5057329;28;21368;-66
2022/11/10 11:17:20;;;;;;;14.98;3.13;;;;;;;12.79;81.56;102323.75;5056090;28;20086;-66
2022/11/10 11:19:47;;;;;;;14.90;2.92;;;;;;;12.83;81.79;102337.81;5057165;28;20035;-66
2022/11/10 11:22:32;;;;;;;11.50;2.88;;;;;;;12.88;80.70;102344.13;5054976;28;20072;-66
2022/11/10 11:25:15;;;;;;;16.08;3.10;;;;;;;12.93;80.96;102341.69;5057874;28;20036;-66
2022/11/10 11:28:02;;;;;;;11.68;2.95;;;;;;;12.98;81.37;102335.81;5057384;28;20040;-71
2022/11/10 11:30:50;;;;;;;12.73;3.05;;;;;;;13.02;81.22;102332.47;5057390;28;20124;-71
2022/11/10 11:33:37;;;;;;;12.90;2.63;;;;;;;13.12;81.47;102344.19;5056301;28;20044;-72
2022/11/10 11:36:21;;;;;;;13.32;3.45;;;;;;;13.21;79.43;102346.25;5060323;28;20049;-72
2022/11/10 11:38:54;;;;;;;12.93;2.63;;;;;;;13.29;79.14;102363.09;5055518;28;20026;-71
2022/11/10 11:41:58;;;;;;;11.45;2.90;;;;;;;13.38;79.44;102359.97;5062011;28;20112;-72